createdAt,value
2022-11-28T00:01:36.874Z,29.60
2022-11-28T00:04:04.906Z,26.42
2022-11-28T00:06:32.012Z,25.98
2022-11-28T00:08:59.750Z,27.10
2022-11-28T00:11:26.677Z,31.05
2022-11-28T00:13:54.405Z,31.02
2022-11-28T00:16:22.175Z,26.13
2022-11-28T00:18:53.093Z,26.25
2022-11-28T00:21:20.176Z,24.67
2022-11-28T00:23:47.512Z,28.30
2022-11-28T00:26:17.208Z,28.73
2022-11-28T00:28:44.187Z,26.50
2022-11-28T00:31:15.395Z,24.88
2022-11-28T00:33:42.569Z,24.17
2022-11-28T00:36:09.842Z,29.77
2022-11-28T00:38:36.907Z,28.20
2022-11-28T00:41:08.644Z,27.83
2022-11-28T00:43:35.761Z,23.65
2022-11-28T00:46:03.357Z,27.15
2022-11-28T00:48:30.341Z,26.70
2022-11-28T00:51:10.357Z,27.08
2022-11-28T00:53:37.485Z,28.60
2022-11-28T00:56:05.920Z,25.27
2022-11-28T00:58:36.037Z,32.45
2022-11-28T01:01:13.999Z,25.02
2022-11-28T01:03:41.150Z,30.95
2022-11-28T01:06:08.295Z,28.80
2022-11-28T01:08:35.350Z,31.38
2022-11-28T01:11:02.492Z,24.50
2022-11-28T01:13:29.513Z,28.08
2022-11-28T01:15:56.468Z,25.85
2022-11-28T01:18:23.480Z,23.35
2022-11-28T01:20:50.392Z,22.58
2022-11-28T01:23:18.701Z,26.63
2022-11-28T01:25:45.636Z,22.80
2022-11-28T01:28:12.734Z,29.20
2022-11-28T01:30:39.637Z,25.23
2022-11-28T01:33:06.640Z,24.95
2022-11-28T01:35:33.592Z,27.17
2022-11-28T01:38:00.520Z,28.75
2022-11-28T01:40:27.507Z,35.15
2022-11-28T01:42:54.476Z,26.50
2022-11-28T01:45:23.324Z,32.47
2022-11-28T01:47:50.884Z,27.88
2022-11-28T01:50:17.837Z,26.20
2022-11-28T01:52:45.966Z,23.00
2022-11-28T01:55:13.372Z,26.13
2022-11-28T01:57:40.307Z,26.17
2022-11-28T02:00:13.287Z,25.85
2022-11-28T02:02:41.768Z,26.13
2022-11-28T02:05:09.030Z,26.33
2022-11-28T02:07:36.275Z,28.08
2022-11-28T02:10:03.925Z,27.20
2022-11-28T02:12:37.049Z,24.23
2022-11-28T02:15:35.080Z,26.83
2022-11-28T02:18:10.995Z,26.73
2022-11-28T02:20:56.650Z,25.02
2022-11-28T02:23:46.831Z,26.33
2022-11-28T02:26:21.857Z,27.98
2022-11-28T02:29:10.778Z,29.95
2022-11-28T02:31:56.686Z,27.52
2022-11-28T02:35:07.175Z,25.63
2022-11-28T02:37:56.100Z,27.52
2022-11-28T02:40:37.655Z,24.95
2022-11-28T02:43:27.600Z,30.13
2022-11-28T02:46:08.550Z,30.48
2022-11-28T02:48:55.721Z,28.90
2022-11-28T02:51:43.961Z,25.20
2022-11-28T02:54:12.408Z,24.95
2022-11-28T02:56:39.596Z,24.58
2022-11-28T02:59:39.203Z,25.30
2022-11-28T03:02:13.603Z,29.45
2022-11-28T03:05:04.531Z,27.15
2022-11-28T03:08:16.361Z,29.92
2022-11-28T03:10:59.569Z,28.00
2022-11-28T03:13:42.180Z,33.40
2022-11-28T03:16:22.873Z,27.40
2022-11-28T03:19:05.135Z,26.10
2022-11-28T03:21:59.052Z,28.67
2022-11-28T03:24:35.854Z,30.33
2022-11-28T03:27:17.060Z,25.63
2022-11-28T03:29:46.779Z,25.13
2022-11-28T03:32:24.783Z,23.70
2022-11-28T03:34:56.734Z,20.48
2022-11-28T03:37:25.999Z,21.10
2022-11-28T03:39:55.523Z,17.10
2022-11-28T03:42:23.910Z,17.80
2022-11-28T03:45:15.434Z,21.30
2022-11-28T03:47:47.333Z,18.50
2022-11-28T03:50:23.352Z,19.27
2022-11-28T03:52:52.293Z,17.23
2022-11-28T03:55:21.069Z,15.13
2022-11-28T03:58:03.568Z,16.60
2022-11-28T04:00:30.592Z,13.15
2022-11-28T04:03:06.742Z,14.27
2022-11-28T04:05:50.426Z,15.55
2022-11-28T04:08:18.838Z,13.52
2022-11-28T04:10:57.052Z,10.82
2022-11-28T04:13:45.364Z,13.70
2022-11-28T04:16:34.493Z,13.50
2022-11-28T04:19:11.651Z,12.75
2022-11-28T04:21:49.220Z,14.95
2022-11-28T04:24:18.836Z,10.25
2022-11-28T04:26:48.203Z,12.43
2022-11-28T04:29:16.947Z,12.02
2022-11-28T04:31:44.752Z,16.95
2022-11-28T04:34:14.404Z,13.68
2022-11-28T04:36:41.431Z,15.35
2022-11-28T04:39:10.590Z,10.15
2022-11-28T04:41:59.222Z,16.00
2022-11-28T04:44:49.444Z,15.02
2022-11-28T04:47:16.428Z,15.73
2022-11-28T04:49:43.321Z,13.00
2022-11-28T04:52:17.340Z,15.40
2022-11-28T04:54:56.291Z,16.15
2022-11-28T04:57:37.848Z,13.88
2022-11-28T05:00:10.070Z,13.95
2022-11-28T05:02:37.417Z,13.90
2022-11-28T05:05:12.006Z,12.57
2022-11-28T05:07:39.113Z,13.70
2022-11-28T05:10:07.432Z,12.52
2022-11-28T05:12:34.581Z,15.40
2022-11-28T05:15:01.575Z,14.93
2022-11-28T05:17:28.575Z,15.75
2022-11-28T05:19:55.474Z,16.17
2022-11-28T05:22:22.484Z,18.02
2022-11-28T05:24:49.408Z,15.02
2022-11-28T05:27:16.397Z,13.30
2022-11-28T05:29:49.378Z,14.23
2022-11-28T05:32:19.029Z,16.58
2022-11-28T05:34:45.929Z,12.40
2022-11-28T05:37:12.966Z,16.20
2022-11-28T05:39:40.131Z,10.68
2022-11-28T05:42:07.303Z,13.10
2022-11-28T05:44:34.240Z,16.02
2022-11-28T05:47:01.209Z,14.50
2022-11-28T05:49:29.059Z,12.63
2022-11-28T05:51:56.018Z,12.75
2022-11-28T05:54:23.059Z,11.68
2022-11-28T05:56:50.025Z,17.42
2022-11-28T05:59:17.087Z,10.60
2022-11-28T06:01:44.155Z,10.48
2022-11-28T06:04:11.259Z,11.20
2022-11-28T06:06:38.305Z,13.57
2022-11-28T06:09:05.473Z,12.98
2022-11-28T06:11:32.640Z,12.23
2022-11-28T06:13:59.656Z,9.00
2022-11-28T06:16:27.766Z,10.50
2022-11-28T06:18:59.740Z,9.85
2022-11-28T06:21:27.320Z,8.82
2022-11-28T06:23:54.368Z,8.60
2022-11-28T06:26:23.048Z,11.23
2022-11-28T06:28:50.124Z,12.25
2022-11-28T06:31:21.113Z,9.55
2022-11-28T06:33:57.391Z,9.80
2022-11-28T06:36:27.289Z,10.70
2022-11-28T06:38:54.580Z,9.63
2022-11-28T06:42:14.901Z,11.75
2022-11-28T06:44:25.981Z,10.90
2022-11-28T06:47:03.800Z,9.68
2022-11-28T06:49:45.704Z,8.55
2022-11-28T06:52:15.095Z,9.40
2022-11-28T06:54:44.805Z,11.57
2022-11-28T06:57:12.480Z,17.65
2022-11-28T06:59:54.086Z,20.17
2022-11-28T07:02:25.600Z,15.10
2022-11-28T07:04:53.989Z,13.93
2022-11-28T07:07:21.242Z,13.93
2022-11-28T07:10:00.355Z,17.17
2022-11-28T07:12:35.040Z,21.88
2022-11-28T07:15:07.116Z,16.75
2022-11-28T07:17:35.275Z,13.60
2022-11-28T07:20:14.162Z,20.88
2022-11-28T07:23:06.695Z,13.80
2022-11-28T07:29:32.348Z,19.80
2022-11-28T07:33:00.799Z,13.70
2022-11-28T07:35:30.732Z,14.73
2022-11-28T07:40:50.794Z,11.75
2022-11-28T07:43:21.086Z,17.90
2022-11-28T07:46:00.496Z,14.52
2022-11-28T07:48:28.680Z,17.27
2022-11-28T07:51:09.056Z,12.88
2022-11-28T07:53:58.867Z,12.00
2022-11-28T07:56:50.223Z,12.15
2022-11-28T07:59:20.140Z,11.95
2022-11-28T08:01:50.550Z,13.48
2022-11-28T08:04:17.825Z,13.40
2022-11-28T08:06:47.444Z,14.88
2022-11-28T08:09:14.656Z,17.77
2022-11-28T08:11:53.648Z,14.48
2022-11-28T08:14:20.801Z,13.77
2022-11-28T08:16:54.258Z,14.57
2022-11-28T08:19:24.988Z,11.18
2022-11-28T08:21:57.176Z,11.75
2022-11-28T08:24:29.286Z,10.38
2022-11-28T08:26:57.062Z,13.07
2022-11-28T08:29:24.080Z,14.43
2022-11-28T08:32:05.000Z,12.30
2022-11-28T08:34:39.514Z,14.80
2022-11-28T08:37:08.989Z,15.32
2022-11-28T08:39:38.807Z,16.35
2022-11-28T08:42:05.961Z,14.45
2022-11-28T08:45:34.881Z,12.77
2022-11-28T08:49:37.303Z,12.00
2022-11-28T08:51:32.450Z,12.05
2022-11-28T08:54:58.211Z,12.95
2022-11-28T08:57:28.636Z,18.38
2022-11-28T09:02:13.742Z,14.38
2022-11-28T09:03:45.589Z,11.82
2022-11-28T09:06:26.030Z,15.93
2022-11-28T09:09:43.131Z,12.80
2022-11-28T09:12:31.181Z,11.95
2022-11-28T09:15:53.709Z,20.92
2022-11-28T09:18:23.930Z,11.43
2022-11-28T09:21:19.806Z,19.38
2022-11-28T09:23:59.418Z,14.18
2022-11-28T09:26:38.308Z,13.68
2022-11-28T09:30:02.367Z,17.50
2022-11-28T09:32:53.679Z,14.82
2022-11-28T09:35:57.801Z,23.40
2022-11-28T09:39:03.406Z,14.65
2022-11-28T09:45:47.505Z,12.43
2022-11-28T09:48:44.139Z,15.35
2022-11-28T09:51:42.100Z,13.55
2022-11-28T09:58:31.085Z,11.00
2022-11-28T10:05:49.016Z,15.57
2022-11-28T10:09:22.819Z,16.55
2022-11-28T10:12:40.013Z,10.27
2022-11-28T10:16:10.767Z,13.43
2022-11-28T10:19:02.949Z,13.15
2022-11-28T10:21:48.981Z,17.55
2022-11-28T10:27:52.951Z,15.75
2022-11-28T10:30:52.187Z,17.45
2022-11-28T10:48:37.910Z,12.02
2022-11-28T10:51:36.605Z,10.25
2022-11-28T10:54:48.971Z,14.35
2022-11-28T10:58:08.084Z,13.30
2022-11-28T11:00:39.096Z,12.52
2022-11-28T11:03:10.979Z,13.70
2022-11-28T11:05:45.514Z,16.17
2022-11-28T11:08:32.922Z,15.13
2022-11-28T11:11:36.432Z,16.25
2022-11-28T11:14:54.060Z,14.00
2022-11-28T11:17:36.293Z,14.38
2022-11-28T11:20:27.450Z,17.90
2022-11-28T11:23:04.043Z,11.15
2022-11-28T11:25:35.368Z,20.88
2022-11-28T11:28:08.659Z,17.70
2022-11-28T11:30:43.293Z,12.27
2022-11-28T11:33:15.796Z,14.90
2022-11-28T11:35:47.827Z,16.48
2022-11-28T11:38:18.997Z,15.05
2022-11-28T11:40:46.116Z,14.35
2022-11-28T11:43:26.854Z,16.58
2022-11-28T11:46:10.930Z,17.67
2022-11-28T11:48:45.626Z,18.90
2022-11-28T11:51:28.454Z,17.30
2022-11-28T11:54:05.270Z,18.20
2022-11-28T11:56:37.929Z,16.58
2022-11-28T11:59:14.185Z,17.75
2022-11-28T12:01:41.451Z,25.75
2022-11-28T12:04:30.629Z,14.38
2022-11-28T12:06:55.633Z,16.95
2022-11-28T12:09:29.144Z,15.20
2022-11-28T12:12:25.061Z,16.45
2022-11-28T12:14:52.835Z,18.35
2022-11-28T12:23:29.735Z,23.80
2022-11-28T12:26:33.300Z,20.65
2022-11-28T12:29:09.709Z,16.25
2022-11-28T12:31:46.199Z,17.88
2022-11-28T12:34:19.405Z,25.98
2022-11-28T12:37:05.761Z,21.42
2022-11-28T12:39:38.905Z,21.50
2022-11-28T12:42:06.164Z,29.42
2022-11-28T12:45:23.817Z,19.25
2022-11-28T12:48:22.808Z,21.00
2022-11-28T12:51:01.506Z,24.15
2022-11-28T12:53:43.690Z,27.48
2022-11-28T12:56:37.766Z,24.73
2022-11-28T12:59:54.310Z,25.50
2022-11-28T13:02:21.371Z,20.42
2022-11-28T13:05:15.709Z,22.00
2022-11-28T13:08:10.733Z,26.50
2022-11-28T13:10:55.945Z,20.63
2022-11-28T13:13:57.362Z,33.05
2022-11-28T13:16:27.290Z,20.23
2022-11-28T13:19:11.523Z,19.20
2022-11-28T13:21:44.275Z,23.08
2022-11-28T13:24:40.455Z,22.20
2022-11-28T13:27:32.652Z,19.83
2022-11-28T13:30:22.425Z,25.13
2022-11-28T13:33:38.161Z,24.85
2022-11-28T13:36:05.839Z,22.60
2022-11-28T13:39:10.858Z,22.35
2022-11-28T13:42:28.769Z,23.40
2022-11-28T13:44:47.507Z,21.30
2022-11-28T13:47:25.901Z,18.08
2022-11-28T13:49:53.055Z,19.83
2022-11-28T13:52:21.400Z,18.88
2022-11-28T13:54:52.626Z,21.40
2022-11-28T13:57:23.848Z,19.15
2022-11-28T14:00:06.323Z,13.88
2022-11-28T14:02:45.149Z,14.98
2022-11-28T14:05:39.111Z,16.00
2022-11-28T14:08:08.576Z,15.10
2022-11-28T14:11:28.369Z,20.88
2022-11-28T14:14:19.312Z,19.95
2022-11-28T14:16:55.346Z,18.38
2022-11-28T14:19:56.605Z,23.85
2022-11-28T14:22:24.391Z,26.48
2022-11-28T14:25:17.392Z,16.38
2022-11-28T14:27:54.676Z,20.30
2022-11-28T14:30:30.911Z,19.35
2022-11-28T14:33:08.426Z,17.88
2022-11-28T14:35:50.910Z,19.35
2022-11-28T14:38:30.743Z,21.45
2022-11-28T14:41:08.896Z,16.40
2022-11-28T14:43:46.524Z,12.98
2022-11-28T14:46:29.195Z,9.77
2022-11-28T14:49:05.811Z,21.13
2022-11-28T14:52:09.842Z,15.95
2022-11-28T14:55:03.122Z,14.23
2022-11-28T14:57:34.030Z,15.52
2022-11-28T15:00:18.063Z,18.63
2022-11-28T15:03:27.467Z,18.90
2022-11-28T15:06:00.588Z,15.67
2022-11-28T15:08:43.013Z,19.60
2022-11-28T15:11:16.378Z,22.60
2022-11-28T15:13:54.737Z,17.05
2022-11-28T15:16:26.096Z,14.13
2022-11-28T15:18:58.417Z,22.27
2022-11-28T15:21:32.392Z,18.30
2022-11-28T15:26:30.312Z,20.13
2022-11-28T15:29:24.121Z,18.08
2022-11-28T15:31:52.369Z,18.27
2022-11-28T15:34:42.985Z,16.13
2022-11-28T15:37:20.931Z,23.08
2022-11-28T15:39:50.694Z,18.80
2022-11-28T15:42:23.696Z,20.33
2022-11-28T15:45:04.307Z,20.08
2022-11-28T15:47:31.435Z,21.08
2022-11-28T15:50:01.973Z,20.15
2022-11-28T15:52:29.196Z,20.13
2022-11-28T15:54:56.469Z,20.13
2022-11-28T15:57:28.827Z,19.25
2022-11-28T15:59:56.746Z,15.77
2022-11-28T16:02:34.726Z,18.38
2022-11-28T16:05:42.552Z,17.55
2022-11-28T16:08:28.771Z,16.25
2022-11-28T16:11:01.022Z,16.50
2022-11-28T16:13:31.658Z,16.85
2022-11-28T16:16:00.248Z,16.80
2022-11-28T16:18:30.400Z,17.48
2022-11-28T16:20:58.300Z,18.38
2022-11-28T16:23:35.601Z,17.30
2022-11-28T16:26:26.880Z,17.25
2022-11-28T16:29:12.403Z,16.15
2022-11-28T16:31:39.431Z,15.02
2022-11-28T16:34:12.011Z,16.85
2022-11-28T16:36:42.523Z,21.25
2022-11-28T16:39:35.251Z,13.30
2022-11-28T16:42:15.216Z,21.58
2022-11-28T16:44:42.474Z,18.30
2022-11-28T16:47:27.002Z,21.50
2022-11-28T16:50:16.087Z,20.20
2022-11-28T16:52:55.807Z,18.80
2022-11-28T16:55:28.934Z,15.18
2022-11-28T16:58:20.733Z,20.02
2022-11-28T17:00:52.678Z,18.95
2022-11-28T17:03:42.640Z,20.48
2022-11-28T17:06:18.785Z,13.43
2022-11-28T17:08:45.990Z,13.93
2022-11-28T17:11:13.165Z,17.00
2022-11-28T17:13:40.539Z,15.43
2022-11-28T17:16:14.785Z,18.73
2022-11-28T17:18:45.240Z,17.38
2022-11-28T17:21:12.489Z,18.00
2022-11-28T17:23:41.653Z,15.57
2022-11-28T17:26:13.333Z,18.30
2022-11-28T17:28:49.248Z,14.75
2022-11-28T17:31:16.301Z,18.60
2022-11-28T17:33:44.860Z,17.00
2022-11-28T17:36:12.530Z,12.45
2022-11-28T17:38:39.646Z,20.15
2022-11-28T17:41:06.602Z,20.58
2022-11-28T17:43:38.728Z,16.13
2022-11-28T17:46:06.221Z,21.15
2022-11-28T17:48:33.212Z,18.30
2022-11-28T17:51:02.137Z,17.83
2022-11-28T17:53:29.178Z,17.80
2022-11-28T17:55:59.190Z,15.60
2022-11-28T17:58:26.776Z,15.70
2022-11-28T18:00:59.995Z,18.70
2022-11-28T18:03:29.935Z,14.20
2022-11-28T18:05:57.280Z,17.33
2022-11-28T18:08:24.577Z,18.92
2022-11-28T18:11:02.461Z,17.45
2022-11-28T18:13:29.408Z,18.17
2022-11-28T18:15:56.795Z,18.48
2022-11-28T18:18:23.986Z,13.68
2022-11-28T18:20:51.192Z,14.02
2022-11-28T18:23:18.190Z,15.02
2022-11-28T18:25:45.399Z,18.73
2022-11-28T18:28:18.483Z,21.92
2022-11-28T18:30:47.273Z,17.98
2022-11-28T18:33:14.614Z,14.75
2022-11-28T18:35:41.707Z,18.10
2022-11-28T18:38:08.856Z,14.82
2022-11-28T18:40:36.589Z,15.50
2022-11-28T18:43:03.905Z,15.65
2022-11-28T18:45:31.012Z,17.15
2022-11-28T18:48:00.355Z,16.75
2022-11-28T18:50:28.571Z,12.93
2022-11-28T18:52:56.785Z,13.65
2022-11-28T18:55:23.995Z,22.55
2022-11-28T18:57:51.016Z,16.73
2022-11-28T19:00:19.410Z,19.08
2022-11-28T19:02:48.620Z,16.67
2022-11-28T19:05:15.689Z,15.93
2022-11-28T19:07:42.818Z,22.75
2022-11-28T19:10:10.301Z,21.25
2022-11-28T19:12:37.507Z,20.30
2022-11-28T19:15:04.910Z,21.35
2022-11-28T19:17:32.564Z,14.80
2022-11-28T19:19:59.838Z,15.80
2022-11-28T19:22:26.952Z,15.27
2022-11-28T19:24:53.987Z,18.70
2022-11-28T19:27:22.700Z,17.73
2022-11-28T19:29:49.736Z,16.73
2022-11-28T19:32:18.279Z,17.92
2022-11-28T19:34:45.353Z,16.13
2022-11-28T19:37:15.332Z,20.48
2022-11-28T19:39:42.716Z,16.15
2022-11-28T19:42:09.911Z,21.45
2022-11-28T19:44:37.028Z,25.48
2022-11-28T19:47:06.266Z,16.05
2022-11-28T19:49:33.559Z,16.42
2022-11-28T19:52:01.764Z,13.93
2022-11-28T19:54:28.894Z,17.45
2022-11-28T19:57:00.272Z,18.88
2022-11-28T19:59:27.804Z,14.35
2022-11-28T20:01:55.033Z,15.38
2022-11-28T20:04:22.783Z,13.63
2022-11-28T20:06:49.901Z,17.27
2022-11-28T20:09:17.477Z,12.00
2022-11-28T20:11:45.124Z,17.95
2022-11-28T20:14:17.641Z,15.07
2022-11-28T20:16:44.977Z,17.50
2022-11-28T20:19:13.114Z,16.10
2022-11-28T20:21:40.540Z,30.23
2022-11-28T20:24:08.829Z,19.85
2022-11-28T20:26:38.500Z,17.08
2022-11-28T20:29:06.083Z,17.92
2022-11-28T20:31:38.710Z,15.32
2022-11-28T20:34:06.678Z,17.50
2022-11-28T20:36:37.106Z,15.80
2022-11-28T20:39:06.448Z,14.68
2022-11-28T20:41:33.591Z,15.25
2022-11-28T20:44:01.136Z,14.02
2022-11-28T20:46:32.421Z,19.40
2022-11-28T20:49:04.521Z,20.83
2022-11-28T20:51:35.279Z,21.00
2022-11-28T20:54:02.595Z,13.55
2022-11-28T20:56:30.668Z,15.10
2022-11-28T20:59:01.820Z,19.63
2022-11-28T21:01:30.924Z,16.65
2022-11-28T21:03:58.619Z,18.20
2022-11-28T21:06:25.676Z,18.75
2022-11-28T21:08:52.721Z,18.38
2022-11-28T21:11:43.847Z,20.05
2022-11-28T21:14:08.380Z,18.73
2022-11-28T21:16:35.369Z,14.85
2022-11-28T21:19:05.267Z,13.88
2022-11-28T21:21:32.898Z,16.30
2022-11-28T21:24:02.585Z,15.48
2022-11-28T21:26:30.628Z,16.83
2022-11-28T21:29:00.212Z,18.35
2022-11-28T21:31:28.995Z,13.07
2022-11-28T21:33:56.884Z,12.55
2022-11-28T21:36:24.348Z,13.55
2022-11-28T21:38:51.939Z,14.85
2022-11-28T21:41:19.504Z,15.55
2022-11-28T21:43:47.443Z,12.13
2022-11-28T21:46:14.595Z,14.05
2022-11-28T21:48:42.345Z,13.70
2022-11-28T21:51:17.338Z,16.25
2022-11-28T21:53:44.331Z,13.55
2022-11-28T21:56:11.751Z,16.60
2022-11-28T21:58:39.163Z,12.00
2022-11-28T22:01:09.374Z,13.60
2022-11-28T22:03:37.793Z,16.73
2022-11-28T22:06:05.921Z,23.00
2022-11-28T22:08:33.969Z,18.75
2022-11-28T22:11:05.019Z,23.80
2022-11-28T22:13:33.102Z,18.67
2022-11-28T22:16:00.352Z,15.05
2022-11-28T22:18:30.978Z,14.93
2022-11-28T22:21:06.556Z,23.42
2022-11-28T22:23:39.209Z,14.90
2022-11-28T22:26:07.106Z,14.68
2022-11-28T22:28:34.919Z,12.75
2022-11-28T22:31:13.683Z,21.27
2022-11-28T22:33:40.891Z,12.73
2022-11-28T22:36:11.061Z,13.82
2022-11-28T22:38:38.937Z,19.42
2022-11-28T22:41:07.716Z,18.40
2022-11-28T22:43:34.776Z,13.93
2022-11-28T22:46:02.567Z,14.57
2022-11-28T22:48:30.864Z,11.50
2022-11-28T22:50:58.127Z,14.05
2022-11-28T22:53:25.444Z,15.27
2022-11-28T22:55:52.641Z,15.25
2022-11-28T22:58:19.679Z,14.15
2022-11-28T23:00:46.800Z,13.32
2022-11-28T23:03:14.023Z,15.63
2022-11-28T23:05:44.292Z,14.32
2022-11-28T23:08:14.287Z,14.70
2022-11-28T23:10:41.691Z,12.75
2022-11-28T23:13:08.747Z,13.88
2022-11-28T23:15:43.080Z,16.38
2022-11-28T23:18:12.191Z,21.27
2022-11-28T23:20:39.678Z,15.55
2022-11-28T23:23:06.891Z,16.10
2022-11-28T23:25:35.937Z,14.27
2022-11-28T23:28:03.374Z,14.20
2022-11-28T23:30:30.470Z,17.42
2022-11-28T23:32:57.799Z,17.35
2022-11-28T23:35:24.845Z,18.05
2022-11-28T23:37:52.115Z,19.05
2022-11-28T23:40:19.510Z,18.20
2022-11-28T23:42:46.548Z,19.40
2022-11-28T23:45:13.548Z,18.88
2022-11-28T23:47:40.523Z,22.17
2022-11-28T23:50:08.151Z,17.15
2022-11-28T23:52:35.149Z,16.90
2022-11-28T23:55:02.098Z,14.48
2022-11-28T23:57:29.121Z,13.95
2022-11-28T23:59:56.038Z,20.65
